Time;durP1;ratioP1;P1;durP2;ratioP2;P2;SDS_P1;SDS_P2;PMS_P1;PMS_P2;Temp;Humidity;BMP_temperature;BMP_pressure;BME280_temperature;BME280_humidity;BME280_pressure;Samples;Min_cycle;Max_cycle;Signal;HPM_P1;HPM_P2
2024/03/25 00:00:49;;;;;;;16.50;2.28;;;4.30;99.90;;;;;;6136634;23;20017;-82
2024/03/25 00:03:16;;;;;;;15.60;2.42;;;4.30;99.90;;;;;;6112900;23;20264;-82
2024/03/25 00:05:43;;;;;;;16.48;2.22;;;4.30;99.90;;;;;;6089074;23;20473;-81
2024/03/25 00:08:09;;;;;;;12.68;2.05;;;4.30;99.90;;;;;;6115817;23;20012;-79
2024/03/25 00:10:36;;;;;;;13.07;2.13;;;4.20;99.90;;;;;;6097197;23;20024;-80
2024/03/25 00:13:03;;;;;;;18.55;2.05;;;4.20;99.90;;;;;;6095865;23;20266;-82
2024/03/25 00:15:30;;;;;;;15.05;1.60;;;4.20;99.90;;;;;;6178232;23;20005;-80
2024/03/25 00:17:57;;;;;;;18.95;2.45;;;4.20;99.90;;;;;;6115217;23;20013;-80
2024/03/25 00:20:24;;;;;;;18.38;2.10;;;4.10;99.90;;;;;;6176302;23;20040;-81
2024/03/25 00:22:50;;;;;;;15.65;2.22;;;4.20;99.90;;;;;;6135370;23;20020;-82
2024/03/25 00:25:16;;;;;;;12.43;1.60;;;4.20;99.90;;;;;;6112334;23;20023;-79
2024/03/25 00:27:43;;;;;;;15.20;2.35;;;4.10;99.90;;;;;;6148024;23;20009;-80
2024/03/25 00:30:10;;;;;;;14.93;2.92;;;4.10;99.90;;;;;;6137276;23;20477;-81
2024/03/25 00:32:36;;;;;;;18.25;2.33;;;4.10;99.90;;;;;;6112085;23;20442;-81
2024/03/25 00:35:03;;;;;;;18.83;2.65;;;4.00;99.90;;;;;;6113196;23;20222;-82
2024/03/25 00:37:30;;;;;;;19.13;2.83;;;4.00;99.90;;;;;;6112337;23;20009;-80
2024/03/25 00:39:57;;;;;;;11.93;2.00;;;4.10;99.90;;;;;;6113333;23;20479;-82
2024/03/25 00:42:23;;;;;;;19.15;4.78;;;4.10;99.90;;;;;;6087670;23;20481;-82
2024/03/25 00:44:50;;;;;;;23.15;3.35;;;4.10;99.90;;;;;;6138069;23;20013;-82
2024/03/25 00:47:16;;;;;;;13.73;2.08;;;4.10;99.90;;;;;;6112771;23;20005;-81
2024/03/25 00:49:43;;;;;;;22.15;3.10;;;4.20;99.90;;;;;;6113751;23;20484;-83
2024/03/25 00:52:09;;;;;;;15.13;2.35;;;4.20;99.90;;;;;;6136735;23;20024;-82
2024/03/25 00:54:35;;;;;;;17.98;2.40;;;4.30;99.90;;;;;;6113301;23;20020;-82
2024/03/25 00:57:02;;;;;;;21.10;2.10;;;4.30;99.90;;;;;;6112153;23;20559;-81
2024/03/25 00:59:29;;;;;;;21.52;2.88;;;4.30;99.90;;;;;;6111978;23;20009;-81
2024/03/25 01:01:55;;;;;;;15.70;2.63;;;4.30;99.90;;;;;;6110892;23;20024;-81
2024/03/25 01:04:23;;;;;;;13.52;1.83;;;4.20;99.90;;;;;;6122529;23;20008;-81
2024/03/25 01:06:49;;;;;;;11.70;1.50;;;4.20;99.90;;;;;;6136221;23;20040;-81
2024/03/25 01:09:16;;;;;;;20.60;2.92;;;4.10;99.90;;;;;;6115407;23;20016;-81
2024/03/25 01:11:42;;;;;;;20.15;2.88;;;4.10;99.90;;;;;;6112293;23;20013;-83
2024/03/25 01:14:08;;;;;;;15.60;1.92;;;4.00;99.90;;;;;;6112394;23;20005;-80
2024/03/25 01:16:34;;;;;;;11.32;1.60;;;4.00;99.90;;;;;;6149056;23;20409;-83
2024/03/25 01:19:02;;;;;;;14.30;2.00;;;3.90;99.90;;;;;;6117315;23;20095;-81
2024/03/25 01:21:28;;;;;;;20.95;2.38;;;3.90;99.90;;;;;;6139656;23;20009;-81
2024/03/25 01:23:54;;;;;;;8.60;1.42;;;3.90;99.90;;;;;;6090998;23;20005;-83
2024/03/25 01:26:21;;;;;;;10.88;2.05;;;3.90;99.90;;;;;;6089744;23;20446;-83
2024/03/25 01:28:47;;;;;;;19.80;1.77;;;3.80;99.90;;;;;;6124912;23;20461;-83
2024/03/25 01:31:14;;;;;;;14.80;2.05;;;3.80;99.90;;;;;;6113684;23;20013;-80
2024/03/25 01:33:40;;;;;;;13.65;2.33;;;3.80;99.90;;;;;;6114500;23;20024;-81
2024/03/25 01:36:06;;;;;;;18.45;2.15;;;3.70;99.90;;;;;;6114034;23;20013;-83
2024/03/25 01:38:33;;;;;;;21.80;2.17;;;3.70;99.90;;;;;;6114218;23;20013;-80
2024/03/25 01:41:10;;;;;;;16.25;2.30;;;3.70;99.90;;;;;;6088648;23;20009;-83
2024/03/25 01:43:37;;;;;;;14.32;2.38;;;3.70;99.90;;;;;;6089510;23;20011;-84
2024/03/25 01:46:04;;;;;;;13.63;2.03;;;3.70;99.90;;;;;;6091467;23;20452;-83
2024/03/25 01:48:31;;;;;;;14.05;1.52;;;3.60;99.90;;;;;;6114901;23;20020;-83
2024/03/25 01:50:58;;;;;;;9.32;1.92;;;3.60;99.90;;;;;;6114193;23;20031;-83
2024/03/25 01:53:26;;;;;;;13.85;1.52;;;3.60;99.90;;;;;;6174996;23;20032;-82
2024/03/25 01:55:56;;;;;;;13.77;1.58;;;3.60;99.90;;;;;;6176099;23;20016;-82
2024/03/25 01:58:23;;;;;;;15.15;2.05;;;3.60;99.90;;;;;;6149649;23;20446;-81
2024/03/25 02:00:51;;;;;;;18.50;2.13;;;3.60;99.90;;;;;;6124133;23;20005;-80
2024/03/25 02:03:18;;;;;;;22.45;2.25;;;3.50;99.90;;;;;;6085452;23;20024;-82
2024/03/25 02:05:44;;;;;;;14.00;2.05;;;3.60;99.90;;;;;;6139683;23;20009;-81
2024/03/25 02:08:12;;;;;;;12.80;1.30;;;3.50;99.90;;;;;;6090107;23;20525;-81
2024/03/25 02:10:38;;;;;;;9.93;1.88;;;3.50;99.90;;;;;;6114657;23;20358;-80
2024/03/25 02:13:05;;;;;;;17.60;1.90;;;3.50;99.90;;;;;;6138520;23;20530;-77
2024/03/25 02:15:31;;;;;;;10.80;2.13;;;3.50;99.90;;;;;;6115452;23;20255;-79
2024/03/25 02:17:58;;;;;;;13.23;1.50;;;3.40;99.90;;;;;;6149609;23;20009;-79
2024/03/25 02:20:24;;;;;;;17.27;2.50;;;3.40;99.90;;;;;;6125812;23;20469;-79
2024/03/25 02:22:50;;;;;;;17.13;1.98;;;3.40;99.90;;;;;;6175734;23;20012;-80
2024/03/25 02:25:17;;;;;;;12.55;1.65;;;3.40;99.90;;;;;;6140379;23;20009;-80
2024/03/25 02:27:44;;;;;;;16.10;1.95;;;3.40;99.90;;;;;;6090879;23;20013;-79
2024/03/25 02:30:14;;;;;;;12.57;1.70;;;3.40;99.90;;;;;;6114962;23;20330;-81
2024/03/25 02:32:41;;;;;;;14.98;1.35;;;3.30;99.90;;;;;;6138866;23;20005;-81
2024/03/25 02:35:12;;;;;;;14.75;1.75;;;3.30;99.90;;;;;;6139750;23;20016;-80
2024/03/25 02:37:39;;;;;;;19.67;2.40;;;3.30;99.90;;;;;;6114658;23;20012;-80
2024/03/25 02:40:07;;;;;;;19.13;2.53;;;3.30;99.90;;;;;;6149752;23;20009;-81
2024/03/25 02:42:33;;;;;;;17.17;2.45;;;3.30;99.90;;;;;;6089101;23;20017;-80
2024/03/25 02:45:00;;;;;;;20.10;3.22;;;3.30;99.90;;;;;;6090712;23;20016;-80
2024/03/25 02:47:26;;;;;;;19.10;3.37;;;3.30;99.90;;;;;;6114522;23;20461;-79
2024/03/25 02:49:53;;;;;;;22.45;2.80;;;3.40;99.90;;;;;;6091299;23;20005;-80
2024/03/25 02:52:20;;;;;;;17.85;2.95;;;3.50;99.90;;;;;;6112817;23;20020;-79
2024/03/25 02:54:46;;;;;;;19.50;2.58;;;3.60;99.90;;;;;;6149668;23;20013;-80
2024/03/25 02:57:13;;;;;;;21.73;3.60;;;3.70;99.90;;;;;;6090522;23;20013;-81
2024/03/25 02:59:39;;;;;;;18.27;2.33;;;3.90;99.90;;;;;;6116779;23;20013;-80
2024/03/25 03:02:05;;;;;;;18.60;2.10;;;3.90;99.90;;;;;;6088762;23;20306;-80
2024/03/25 03:04:32;;;;;;;22.10;3.50;;;4.00;99.90;;;;;;6114928;23;20009;-81
2024/03/25 03:06:59;;;;;;;21.17;3.35;;;4.10;99.90;;;;;;6114414;23;20460;-80
2024/03/25 03:09:25;;;;;;;18.92;2.60;;;4.10;99.90;;;;;;6114755;23;20461;-81
2024/03/25 03:11:51;;;;;;;16.35;2.67;;;4.20;99.90;;;;;;6091464;23;20016;-78
2024/03/25 03:14:18;;;;;;;18.48;2.92;;;4.20;99.90;;;;;;6093326;23;20016;-81
2024/03/25 03:16:44;;;;;;;17.58;3.03;;;4.30;99.90;;;;;;6151184;23;20354;-80
2024/03/25 03:19:11;;;;;;;20.63;2.95;;;4.30;99.90;;;;;;6140688;23;20020;-80
2024/03/25 03:21:37;;;;;;;22.98;3.25;;;4.30;99.90;;;;;;6139808;23;20064;-81
2024/03/25 03:24:04;;;;;;;18.23;2.78;;;4.30;99.90;;;;;;6177333;23;20361;-79
2024/03/25 03:26:31;;;;;;;16.52;2.42;;;4.30;99.90;;;;;;6091452;23;20020;-79
2024/03/25 03:28:57;;;;;;;18.63;2.60;;;4.30;99.90;;;;;;6150824;23;20346;-81
2024/03/25 03:31:24;;;;;;;21.88;2.58;;;4.30;99.90;;;;;;6115282;23;20012;-80
2024/03/25 03:33:51;;;;;;;16.10;1.90;;;4.30;99.90;;;;;;6115170;23;20013;-81
2024/03/25 03:36:18;;;;;;;15.02;2.40;;;4.20;99.90;;;;;;6115813;23;20016;-81
2024/03/25 03:38:46;;;;;;;12.32;2.33;;;4.20;99.90;;;;;;6176520;23;20012;-81
2024/03/25 03:41:13;;;;;;;15.25;2.53;;;4.20;99.90;;;;;;6176828;23;20005;-79
2024/03/25 03:43:39;;;;;;;11.32;1.75;;;4.20;99.90;;;;;;6149778;23;20005;-78
2024/03/25 03:46:06;;;;;;;22.02;2.70;;;4.10;99.90;;;;;;6125644;23;20000;-80
2024/03/25 03:48:32;;;;;;;13.70;2.63;;;4.10;99.90;;;;;;6125499;23;20422;-79
2024/03/25 03:50:58;;;;;;;13.48;1.63;;;4.10;99.90;;;;;;6139555;23;20009;-78
2024/03/25 03:53:25;;;;;;;10.13;1.58;;;4.00;99.90;;;;;;6150223;23;20005;-80
2024/03/25 03:55:59;;;;;;;10.30;1.73;;;4.00;99.90;;;;;;6091178;23;20024;-80
2024/03/25 03:58:25;;;;;;;12.45;1.90;;;3.90;99.90;;;;;;6115284;23;20020;-80
2024/03/25 04:00:54;;;;;;;11.30;1.70;;;3.90;99.90;;;;;;6175931;23;20024;-80
2024/03/25 04:03:21;;;;;;;9.57;1.95;;;3.80;99.90;;;;;;6114080;23;20020;-81
2024/03/25 04:05:48;;;;;;;7.43;1.77;;;3.70;99.90;;;;;;6091577;23;20328;-79
2024/03/25 04:08:14;;;;;;;17.23;2.50;;;3.70;99.90;;;;;;6115919;23;20795;-80
2024/03/25 04:10:42;;;;;;;14.30;2.38;;;3.60;99.90;;;;;;6115176;23;20016;-79
2024/03/25 04:13:08;;;;;;;10.13;1.92;;;3.60;99.90;;;;;;6090182;23;20020;-79
2024/03/25 04:15:35;;;;;;;12.68;2.22;;;3.50;99.90;;;;;;6115545;23;20005;-78
2024/03/25 04:18:01;;;;;;;10.93;1.90;;;3.50;99.90;;;;;;6090875;23;20005;-79
2024/03/25 04:20:28;;;;;;;11.23;2.25;;;3.40;99.90;;;;;;6150679;23;20434;-79
2024/03/25 04:22:56;;;;;;;17.85;2.22;;;3.40;99.90;;;;;;6113613;23;20454;-79
2024/03/25 04:25:22;;;;;;;16.17;3.25;;;3.30;99.90;;;;;;6115968;23;20012;-79
2024/03/25 04:27:48;;;;;;;11.50;2.25;;;3.30;99.90;;;;;;6125858;23;20013;-80
2024/03/25 04:30:15;;;;;;;5.65;1.77;;;3.20;99.90;;;;;;6125230;23;20001;-81
2024/03/25 04:32:42;;;;;;;11.70;2.25;;;3.20;99.90;;;;;;6147874;23;20001;-81
2024/03/25 04:35:08;;;;;;;11.65;2.00;;;3.10;99.90;;;;;;6176260;23;20008;-79
2024/03/25 04:37:35;;;;;;;10.93;2.78;;;3.10;99.90;;;;;;6090138;23;20009;-81
2024/03/25 04:40:03;;;;;;;12.73;2.35;;;3.10;99.90;;;;;;6150337;23;20012;-78
2024/03/25 04:42:30;;;;;;;13.82;2.95;;;3.00;99.90;;;;;;6138559;23;20342;-80
2024/03/25 04:44:57;;;;;;;10.93;2.30;;;3.00;99.90;;;;;;6115975;23;20020;-79
2024/03/25 04:47:23;;;;;;;9.48;2.22;;;2.90;99.90;;;;;;6176118;23;20016;-79
2024/03/25 04:49:50;;;;;;;18.63;3.22;;;2.90;99.90;;;;;;6092087;23;20013;-81
2024/03/25 04:52:17;;;;;;;12.75;3.47;;;2.90;99.90;;;;;;6088676;23;20032;-80
2024/03/25 04:54:44;;;;;;;14.98;3.33;;;2.90;99.90;;;;;;6150308;23;20013;-80
2024/03/25 04:57:10;;;;;;;14.52;2.90;;;2.90;99.90;;;;;;6114865;23;20009;-79
2024/03/25 04:59:37;;;;;;;17.83;3.55;;;2.90;99.90;;;;;;6148940;23;20017;-80
2024/03/25 05:02:03;;;;;;;12.65;2.90;;;2.90;99.90;;;;;;6136617;23;20020;-79
2024/03/25 05:04:30;;;;;;;13.32;2.92;;;2.80;99.90;;;;;;6140135;23;20319;-81
2024/03/25 05:06:56;;;;;;;12.77;3.00;;;2.80;99.90;;;;;;6125740;23;20012;-78
2024/03/25 05:09:22;;;;;;;10.30;2.72;;;2.80;99.90;;;;;;6090721;23;20004;-81
2024/03/25 05:11:49;;;;;;;17.63;4.10;;;2.70;99.90;;;;;;6113576;23;20016;-81
2024/03/25 05:14:15;;;;;;;14.98;3.70;;;2.70;99.90;;;;;;6148029;23;20009;-79
2024/03/25 05:16:42;;;;;;;11.32;3.70;;;2.70;99.90;;;;;;6176071;23;20001;-79
2024/03/25 05:19:08;;;;;;;17.02;4.25;;;2.70;99.90;;;;;;6089863;23;20020;-80
2024/03/25 05:21:35;;;;;;;16.40;4.63;;;2.60;99.90;;;;;;6114917;23;20390;-79
2024/03/25 05:24:01;;;;;;;22.20;5.95;;;2.70;99.90;;;;;;6114272;23;20346;-80
2024/03/25 05:26:28;;;;;;;12.63;4.47;;;2.60;99.90;;;;;;6149275;23;20005;-80
2024/03/25 05:28:57;;;;;;;21.20;5.93;;;2.60;99.90;;;;;;6115240;23;20024;-80
2024/03/25 05:31:24;;;;;;;19.40;5.87;;;2.60;99.90;;;;;;6148847;23;20426;-80
2024/03/25 05:33:50;;;;;;;21.97;6.50;;;2.60;99.90;;;;;;6138000;23;20013;-79
2024/03/25 05:36:17;;;;;;;18.80;5.60;;;2.60;99.90;;;;;;6126301;23;20103;-83
2024/03/25 05:38:43;;;;;;;19.87;5.20;;;2.60;99.90;;;;;;6140352;23;20005;-80
2024/03/25 05:41:10;;;;;;;19.95;5.93;;;2.60;99.90;;;;;;6125519;23;20335;-80
2024/03/25 05:43:37;;;;;;;20.80;5.93;;;2.60;99.90;;;;;;6115069;23;20020;-80
2024/03/25 05:46:04;;;;;;;18.40;6.03;;;2.60;99.90;;;;;;6125532;23;20012;-81
2024/03/25 05:48:31;;;;;;;15.63;5.50;;;2.60;99.90;;;;;;6115578;23;20040;-80
2024/03/25 05:51:01;;;;;;;15.20;6.35;;;2.70;99.90;;;;;;6138093;23;20012;-80
2024/03/25 05:53:29;;;;;;;21.42;6.25;;;2.70;99.90;;;;;;6089376;23;20523;-78
2024/03/25 05:55:56;;;;;;;17.50;5.78;;;2.70;99.90;;;;;;6114523;23;20009;-81
2024/03/25 05:58:22;;;;;;;23.13;7.63;;;2.80;99.90;;;;;;6175909;23;20008;-80
2024/03/25 06:00:49;;;;;;;22.08;6.50;;;2.80;99.90;;;;;;6114701;23;20017;-78
2024/03/25 06:03:16;;;;;;;25.27;8.13;;;2.90;99.90;;;;;;6140251;23;20308;-79
2024/03/25 06:05:43;;;;;;;30.88;8.45;;;3.00;99.90;;;;;;6125732;23;20009;-79
2024/03/25 06:08:18;;;;;;;19.92;7.05;;;3.00;99.90;;;;;;6089659;23;20013;-81
2024/03/25 06:10:44;;;;;;;21.40;6.88;;;3.10;99.90;;;;;;6089852;23;20013;-79
2024/03/25 06:13:11;;;;;;;20.75;6.35;;;3.20;99.90;;;;;;6114057;23;20031;-81
2024/03/25 06:15:37;;;;;;;26.75;7.70;;;3.30;99.90;;;;;;6139822;23;20017;-79
2024/03/25 06:18:03;;;;;;;32.05;8.85;;;3.40;99.90;;;;;;6148511;23;20008;-78
2024/03/25 06:20:30;;;;;;;25.23;8.07;;;3.50;99.90;;;;;;6114261;23;20017;-80
2024/03/25 06:22:56;;;;;;;23.85;7.20;;;3.60;99.90;;;;;;6148155;23;20009;-79
2024/03/25 06:25:22;;;;;;;26.50;7.55;;;3.70;99.90;;;;;;6115956;23;20016;-79
2024/03/25 06:27:49;;;;;;;26.00;6.47;;;3.80;99.90;;;;;;6176379;23;20197;-81
2024/03/25 06:35:45;;;;;;;18.45;6.03;;;4.20;99.90;;;;;;6148902;23;20020;-80
2024/03/25 06:38:11;;;;;;;22.67;7.10;;;4.30;99.90;;;;;;6090179;23;20020;-80
2024/03/25 06:40:38;;;;;;;24.48;7.68;;;4.40;99.90;;;;;;6149895;23;20017;-80
2024/03/25 06:43:05;;;;;;;24.15;6.65;;;4.50;99.90;;;;;;6138481;23;20315;-80
2024/03/25 06:45:32;;;;;;;20.98;7.47;;;4.70;99.90;;;;;;6140836;23;20005;-80
2024/03/25 06:47:58;;;;;;;24.55;6.82;;;4.80;99.90;;;;;;6152506;23;20001;-79
2024/03/25 06:50:25;;;;;;;17.85;6.57;;;4.90;99.90;;;;;;6183169;23;20024;-79
2024/03/25 06:52:51;;;;;;;26.73;6.97;;;5.00;99.90;;;;;;6180300;23;20005;-79
2024/03/25 06:55:22;;;;;;;19.27;6.32;;;5.10;99.90;;;;;;6097948;23;20575;-80
2024/03/25 06:57:51;;;;;;;20.63;5.90;;;5.20;99.90;;;;;;6154804;23;20714;-80
2024/03/25 07:00:18;;;;;;;21.85;7.00;;;5.30;99.90;;;;;;6093929;23;20017;-80
2024/03/25 07:02:45;;;;;;;23.50;8.20;;;5.40;99.90;;;;;;6092408;23;20032;-80
2024/03/25 07:05:11;;;;;;;26.73;8.02;;;5.50;99.90;;;;;;6142472;23;20005;-80
2024/03/25 07:07:37;;;;;;;23.05;7.03;;;5.60;99.90;;;;;;6178238;23;20008;-79
2024/03/25 07:10:04;;;;;;;21.00;7.15;;;5.70;99.90;;;;;;6152432;23;20021;-80
2024/03/25 07:12:30;;;;;;;16.55;6.15;;;5.80;99.90;;;;;;6151693;23;20012;-80
2024/03/25 07:14:57;;;;;;;19.48;6.18;;;5.90;99.90;;;;;;6152182;23;20021;-80
2024/03/25 07:17:25;;;;;;;17.63;5.88;;;6.00;99.90;;;;;;6176610;23;20001;-79
2024/03/25 07:19:52;;;;;;;22.73;7.22;;;6.10;99.90;;;;;;6141496;23;20013;-79
2024/03/25 07:22:18;;;;;;;25.50;7.70;;;6.20;99.90;;;;;;6115209;23;20016;-79
2024/03/25 07:24:45;;;;;;;20.27;6.80;;;6.30;99.90;;;;;;6115682;23;20005;-79
2024/03/25 07:27:11;;;;;;;22.42;6.25;;;6.40;99.90;;;;;;6117070;23;20012;-80
2024/03/25 07:29:38;;;;;;;19.27;6.53;;;6.50;99.90;;;;;;6126956;23;20013;-79
2024/03/25 07:32:05;;;;;;;22.25;6.50;;;6.50;99.90;;;;;;6138441;23;20016;-79
2024/03/25 07:34:31;;;;;;;27.63;6.25;;;6.60;99.90;;;;;;6126654;23;20112;-80
2024/03/25 07:36:57;;;;;;;30.73;7.43;;;6.70;99.90;;;;;;6116184;23;20028;-79
2024/03/25 07:39:24;;;;;;;22.73;6.38;;;6.70;99.90;;;;;;6139915;23;20469;-80
2024/03/25 07:41:50;;;;;;;25.38;6.55;;;6.80;99.90;;;;;;6138975;23;20012;-79
2024/03/25 07:44:17;;;;;;;20.45;6.70;;;6.90;99.90;;;;;;6151183;23;20009;-78
2024/03/25 07:46:43;;;;;;;22.73;6.97;;;7.00;99.90;;;;;;6140139;23;20338;-80
2024/03/25 07:49:10;;;;;;;19.58;6.18;;;7.10;99.90;;;;;;6116095;23;20012;-79
2024/03/25 07:51:39;;;;;;;25.63;6.90;;;7.20;99.90;;;;;;6120091;23;20016;-78
2024/03/25 07:54:05;;;;;;;17.00;5.10;;;7.30;99.90;;;;;;6125784;23;20335;-78
2024/03/25 07:56:32;;;;;;;20.63;6.55;;;7.40;99.90;;;;;;6115744;23;20009;-80
2024/03/25 07:59:01;;;;;;;22.63;6.05;;;7.60;99.90;;;;;;6119617;23;20036;-79
2024/03/25 08:01:27;;;;;;;24.70;6.68;;;7.60;99.90;;;;;;6148052;23;20028;-81
2024/03/25 08:03:54;;;;;;;23.40;6.18;;;7.70;99.90;;;;;;6091068;23;20009;-79
2024/03/25 08:06:21;;;;;;;16.92;5.65;;;7.70;99.90;;;;;;6150753;23;20005;-77
2024/03/25 08:08:47;;;;;;;13.93;5.13;;;7.80;99.90;;;;;;6091305;23;20036;-80
2024/03/25 08:11:14;;;;;;;14.98;4.65;;;8.00;99.90;;;;;;6090597;23;20009;-80
2024/03/25 08:13:40;;;;;;;18.63;5.30;;;8.00;99.90;;;;;;6150664;23;20012;-78
2024/03/25 08:16:06;;;;;;;23.98;6.93;;;8.20;99.90;;;;;;6116417;23;20013;-80
2024/03/25 08:18:33;;;;;;;18.27;4.38;;;8.30;99.90;;;;;;6117365;23;20003;-79
2024/03/25 08:20:59;;;;;;;20.10;5.43;;;8.40;99.90;;;;;;6150377;23;20009;-80
2024/03/25 08:23:26;;;;;;;16.30;5.40;;;8.40;99.90;;;;;;6176156;23;20005;-78
2024/03/25 08:25:52;;;;;;;14.73;5.50;;;8.50;99.90;;;;;;6116307;23;20013;-80
2024/03/25 08:28:18;;;;;;;17.38;5.20;;;8.60;99.90;;;;;;6140763;23;20009;-80
2024/03/25 08:30:45;;;;;;;15.82;5.30;;;8.70;99.90;;;;;;6114931;23;20009;-79
2024/03/25 08:33:11;;;;;;;16.98;3.92;;;8.80;99.90;;;;;;6115405;23;20009;-80
2024/03/25 08:35:38;;;;;;;15.50;4.50;;;8.90;99.90;;;;;;6178018;23;20001;-80
2024/03/25 08:38:04;;;;;;;14.18;4.28;;;8.90;99.90;;;;;;6151039;23;20011;-80
2024/03/25 08:40:30;;;;;;;22.38;5.85;;;9.00;99.90;;;;;;6092151;23;20017;-78
2024/03/25 08:42:57;;;;;;;14.25;4.63;;;9.00;99.90;;;;;;6173858;23;20222;-78
2024/03/25 08:45:24;;;;;;;17.08;5.35;;;9.10;99.90;;;;;;6151541;23;20001;-78
2024/03/25 08:47:50;;;;;;;15.80;4.82;;;9.20;99.90;;;;;;6091359;23;20013;-80
2024/03/25 08:50:17;;;;;;;11.55;3.67;;;9.30;99.90;;;;;;6150033;23;20020;-78
2024/03/25 08:52:43;;;;;;;14.90;3.30;;;9.40;99.90;;;;;;6138196;23;20407;-77
2024/03/25 08:55:09;;;;;;;14.32;3.33;;;9.50;99.90;;;;;;6176577;23;20009;-82
2024/03/25 08:57:35;;;;;;;13.55;3.13;;;9.60;99.90;;;;;;6150731;23;20016;-82
2024/03/25 09:00:04;;;;;;;10.75;2.47;;;9.70;99.90;;;;;;6139689;23;20016;-78
2024/03/25 09:02:30;;;;;;;10.80;3.53;;;9.80;99.90;;;;;;6118503;23;20013;-81
2024/03/25 09:04:56;;;;;;;17.40;3.40;;;9.90;99.90;;;;;;6150379;23;20012;-80
2024/03/25 09:07:23;;;;;;;7.90;2.85;;;10.00;99.90;;;;;;6115790;23;20338;-82
2024/03/25 09:12:34;;;;;;;12.02;2.58;;;10.10;99.90;;;;;;6113645;23;20012;-80
2024/03/25 09:15:00;;;;;;;11.18;1.90;;;10.20;99.90;;;;;;6114412;23;20005;-82
2024/03/25 09:17:27;;;;;;;7.43;2.00;;;10.30;99.90;;;;;;6139067;23;20457;-84
2024/03/25 09:19:53;;;;;;;9.40;1.98;;;10.30;99.90;;;;;;6125681;23;20016;-82
2024/03/25 09:22:19;;;;;;;11.93;2.92;;;10.40;99.90;;;;;;6174597;23;20208;-80
2024/03/25 09:24:45;;;;;;;9.90;1.88;;;10.50;99.90;;;;;;6090483;23;20023;-80
2024/03/25 09:27:12;;;;;;;9.95;1.58;;;10.50;99.90;;;;;;6114505;23;20009;-80
2024/03/25 09:29:38;;;;;;;9.95;2.35;;;10.50;99.90;;;;;;6115167;23;20123;-79
2024/03/25 09:32:05;;;;;;;11.85;1.90;;;10.50;99.90;;;;;;6113896;23;20008;-80
2024/03/25 09:34:31;;;;;;;9.55;2.03;;;10.40;99.90;;;;;;6149244;23;20016;-80
2024/03/25 09:36:58;;;;;;;8.63;2.15;;;10.40;99.90;;;;;;6148984;23;20207;-81
2024/03/25 09:39:24;;;;;;;18.00;3.05;;;10.40;99.90;;;;;;6176160;23;20024;-78
2024/03/25 09:41:55;;;;;;;11.60;3.10;;;10.40;99.90;;;;;;6175828;23;20024;-77
2024/03/25 09:44:25;;;;;;;12.57;2.47;;;10.30;99.90;;;;;;6114376;23;20013;-78
2024/03/25 09:46:52;;;;;;;15.27;2.95;;;10.30;99.90;;;;;;6091559;23;20051;-80
2024/03/25 09:49:20;;;;;;;9.95;2.33;;;10.30;99.90;;;;;;6176393;23;20307;-79
2024/03/25 09:51:47;;;;;;;11.52;1.95;;;10.50;99.90;;;;;;6118354;23;20016;-78
2024/03/25 09:54:14;;;;;;;10.13;2.03;;;10.70;99.90;;;;;;6149441;23;20028;-80
2024/03/25 09:56:42;;;;;;;8.13;2.15;;;11.00;99.90;;;;;;6149419;23;20005;-78
2024/03/25 09:59:08;;;;;;;8.48;1.77;;;11.40;99.90;;;;;;6125709;23;20005;-78
2024/03/25 10:01:35;;;;;;;9.35;1.60;;;11.70;99.90;;;;;;6088829;23;20017;-80
2024/03/25 10:04:02;;;;;;;7.07;1.30;;;11.90;99.90;;;;;;6114321;23;20009;-79
2024/03/25 10:06:28;;;;;;;8.32;1.45;;;12.10;99.90;;;;;;6090013;23;20016;-79
2024/03/25 10:08:57;;;;;;;11.63;2.08;;;12.20;99.90;;;;;;6139929;23;20346;-81
2024/03/25 10:11:23;;;;;;;8.95;1.90;;;12.30;99.90;;;;;;6148574;23;20446;-82
2024/03/25 10:13:50;;;;;;;9.77;1.83;;;12.50;99.90;;;;;;6114396;23;20464;-82
2024/03/25 10:16:16;;;;;;;12.43;2.42;;;12.60;99.90;;;;;;6115454;23;20009;-81
2024/03/25 10:18:43;;;;;;;6.32;1.30;;;12.60;99.90;;;;;;6125787;23;20013;-80
2024/03/25 10:21:12;;;;;;;11.05;1.83;;;12.60;99.90;;;;;;6113492;23;20344;-82
2024/03/25 10:23:42;;;;;;;11.07;2.92;;;12.50;99.90;;;;;;6114683;23;20009;-80
2024/03/25 10:26:08;;;;;;;9.23;2.05;;;12.40;99.90;;;;;;6114638;23;20013;-79
2024/03/25 10:28:35;;;;;;;9.85;1.73;;;12.50;99.90;;;;;;6149768;23;20012;-81
2024/03/25 10:31:05;;;;;;;13.02;2.83;;;12.70;99.90;;;;;;6149156;23;20276;-82
2024/03/25 10:33:32;;;;;;;5.28;1.48;;;13.00;99.90;;;;;;6113919;23;20461;-81
2024/03/25 10:36:02;;;;;;;5.78;1.52;;;13.30;99.90;;;;;;6090637;23;20521;-81
2024/03/25 10:38:30;;;;;;;6.63;1.27;;;13.60;99.90;;;;;;6139494;23;20016;-81
2024/03/25 10:40:57;;;;;;;6.63;1.05;;;13.80;99.90;;;;;;6089353;23;20035;-82
2024/03/25 10:43:28;;;;;;;7.20;1.67;;;14.00;99.90;;;;;;6124198;23;20013;-78
2024/03/25 10:45:58;;;;;;;7.25;1.70;;;14.30;99.90;;;;;;6112712;23;20005;-79
2024/03/25 10:48:30;;;;;;;9.80;1.70;;;14.50;99.90;;;;;;6089624;23;20031;-81
2024/03/25 10:51:00;;;;;;;4.50;1.10;;;14.60;99.90;;;;;;6121364;23;20021;-82
2024/03/25 10:53:28;;;;;;;7.53;1.48;;;14.70;99.90;;;;;;6089369;23;20024;-82
2024/03/25 10:55:56;;;;;;;7.85;1.17;;;14.90;99.90;;;;;;6148336;23;20007;-80
2024/03/25 10:58:23;;;;;;;15.90;5.40;;;15.10;99.90;;;;;;6113831;23;20016;-82
2024/03/25 11:00:55;;;;;;;8.95;2.20;;;15.20;99.90;;;;;;6115475;23;20040;-81
2024/03/25 11:03:23;;;;;;;8.95;1.70;;;15.50;99.90;;;;;;6148054;23;20013;-84
2024/03/25 11:05:49;;;;;;;8.93;1.40;;;15.80;99.90;;;;;;6097250;23;20200;-82
2024/03/25 11:08:17;;;;;;;7.72;1.67;;;16.10;99.90;;;;;;6152421;23;20028;-78
2024/03/25 11:10:46;;;;;;;6.30;1.05;;;16.40;99.90;;;;;;6149573;23;20008;-80
2024/03/25 11:13:14;;;;;;;7.60;0.90;;;16.40;99.90;;;;;;6148404;23;20324;-82
2024/03/25 11:15:45;;;;;;;10.73;3.17;;;16.50;99.90;;;;;;6091503;23;20009;-82
2024/03/25 11:18:13;;;;;;;7.38;1.58;;;16.70;99.90;;;;;;6114828;23;20005;-83
2024/03/25 11:20:45;;;;;;;5.55;1.25;;;16.90;99.90;;;;;;6150772;23;20454;-79
2024/03/25 11:23:14;;;;;;;5.63;0.88;;;17.10;99.90;;;;;;6138280;23;20012;-82
2024/03/25 11:25:41;;;;;;;4.80;0.95;;;17.40;99.90;;;;;;6149436;23;20001;-81
2024/03/25 11:28:09;;;;;;;8.82;0.90;;;17.70;99.90;;;;;;6089022;23;20016;-84
2024/03/25 11:30:37;;;;;;;5.45;1.17;;;17.80;99.90;;;;;;6175988;23;20009;-84
2024/03/25 11:33:06;;;;;;;9.60;1.45;;;17.70;99.90;;;;;;6151141;23;20005;-80
2024/03/25 11:35:39;;;;;;;7.93;1.80;;;17.60;99.90;;;;;;6126530;23;20513;-80
2024/03/25 11:38:05;;;;;;;10.93;1.50;;;17.50;99.90;;;;;;6091084;23;20009;-82
2024/03/25 11:40:32;;;;;;;6.38;1.27;;;17.60;99.90;;;;;;6150076;23;20013;-84
2024/03/25 11:42:59;;;;;;;5.22;0.85;;;17.70;99.90;;;;;;6140776;23;20349;-80
2024/03/25 11:45:25;;;;;;;7.25;1.10;;;18.00;99.90;;;;;;6116722;23;20005;-84
2024/03/25 11:47:51;;;;;;;6.45;1.65;;;18.20;99.90;;;;;;6140868;23;20020;-84
2024/03/25 11:50:19;;;;;;;5.63;0.88;;;18.10;99.90;;;;;;6127400;23;20020;-83
2024/03/25 11:52:46;;;;;;;7.43;1.10;;;17.80;99.90;;;;;;6116343;23;20012;-80
2024/03/25 11:55:19;;;;;;;5.60;1.08;;;17.20;99.90;;;;;;6115575;23;20556;-83
2024/03/25 11:57:45;;;;;;;8.07;1.63;;;16.50;99.90;;;;;;6092756;23;20009;-81
2024/03/25 12:00:14;;;;;;;6.57;1.30;;;16.00;99.90;;;;;;6117331;23;20020;-84
2024/03/25 12:02:45;;;;;;;4.32;0.82;;;15.60;99.90;;;;;;6145251;23;20368;-82
2024/03/25 12:05:14;;;;;;;5.03;0.98;;;15.20;99.90;;;;;;6178323;23;20012;-82
2024/03/25 12:07:41;;;;;;;5.07;1.10;;;14.90;99.90;;;;;;6116495;23;20001;-81
2024/03/25 12:12:54;;;;;;;4.45;0.90;;;16.00;99.90;;;;;;6141112;23;20013;-80
2024/03/25 12:15:21;;;;;;;7.53;1.20;;;17.20;99.90;;;;;;6129366;23;20331;-78
2024/03/25 12:17:48;;;;;;;6.95;1.10;;;18.30;99.90;;;;;;6094818;23;20001;-83
2024/03/25 12:20:17;;;;;;;4.90;1.27;;;19.30;99.90;;;;;;6153598;23;20032;-83
2024/03/25 12:22:44;;;;;;;13.50;4.47;;;20.10;99.90;;;;;;6127628;23;20013;-78
2024/03/25 12:25:11;;;;;;;8.48;3.05;;;20.60;99.90;;;;;;6093576;23;20013;-79
2024/03/25 12:27:42;;;;;;;9.02;2.40;;;20.70;99.80;;;;;;6141094;23;20524;-79
2024/03/25 12:30:10;;;;;;;6.75;1.85;;;20.50;97.40;;;;;;6177747;23;20019;-78
2024/03/25 12:32:41;;;;;;;7.35;1.90;;;20.70;96.50;;;;;;6139482;23;20002;-78
2024/03/25 12:35:18;;;;;;;5.63;1.23;;;21.10;95.90;;;;;;6176497;23;19997;-79
2024/03/25 12:37:47;;;;;;;5.57;1.15;;;21.40;95.30;;;;;;6115372;23;20005;-80
2024/03/25 12:40:26;;;;;;;4.43;1.20;;;21.70;94.40;;;;;;6126367;23;20001;-79
2024/03/25 12:42:53;;;;;;;4.80;0.77;;;21.50;94.00;;;;;;6124161;23;20014;-78
2024/03/25 12:45:23;;;;;;;7.07;3.55;;;21.10;93.40;;;;;;6116349;23;20032;-82
2024/03/25 12:47:53;;;;;;;5.97;1.67;;;20.30;93.30;;;;;;6091320;23;20024;-80
2024/03/25 12:50:20;;;;;;;5.38;1.42;;;19.50;93.60;;;;;;6140692;23;20481;-82
2024/03/25 12:52:47;;;;;;;4.47;1.45;;;19.30;93.30;;;;;;6114789;23;20013;-82
2024/03/25 12:55:13;;;;;;;6.88;1.00;;;19.40;93.40;;;;;;6091173;23;20021;-83